sensor_id;sensor_type;location;lat;lon;timestamp;P1;durP1;ratioP1;P2;durP2;ratioP2
22644;SDS011;11489;50.834;6.752;2023-10-19T00:00:36;7.25;;;5.72;;
22644;SDS011;11489;50.834;6.752;2023-10-19T00:03:09;9.98;;;5.50;;
22644;SDS011;11489;50.834;6.752;2023-10-19T00:05:36;9.02;;;6.22;;
22644;SDS011;11489;50.834;6.752;2023-10-19T00:08:03;8.85;;;6.15;;
22644;SDS011;11489;50.834;6.752;2023-10-19T00:10:32;7.55;;;5.55;;
22644;SDS011;11489;50.834;6.752;2023-10-19T00:13:00;9.45;;;6.90;;
22644;SDS011;11489;50.834;6.752;2023-10-19T00:15:30;7.63;;;5.97;;
22644;SDS011;11489;50.834;6.752;2023-10-19T00:18:18;8.30;;;6.30;;
22644;SDS011;11489;50.834;6.752;2023-10-19T00:20:48;8.35;;;6.07;;
22644;SDS011;11489;50.834;6.752;2023-10-19T00:23:22;7.47;;;5.82;;
22644;SDS011;11489;50.834;6.752;2023-10-19T00:25:58;10.52;;;6.25;;
22644;SDS011;11489;50.834;6.752;2023-10-19T00:28:25;8.40;;;6.30;;
22644;SDS011;11489;50.834;6.752;2023-10-19T00:30:54;9.02;;;5.57;;
22644;SDS011;11489;50.834;6.752;2023-10-19T00:33:28;9.30;;;6.13;;
22644;SDS011;11489;50.834;6.752;2023-10-19T00:35:54;9.48;;;6.30;;
22644;SDS011;11489;50.834;6.752;2023-10-19T00:38:24;12.50;;;6.80;;
22644;SDS011;11489;50.834;6.752;2023-10-19T00:40:56;9.93;;;6.82;;
22644;SDS011;11489;50.834;6.752;2023-10-19T00:43:31;10.13;;;7.28;;
22644;SDS011;11489;50.834;6.752;2023-10-19T00:46:00;9.55;;;6.80;;
22644;SDS011;11489;50.834;6.752;2023-10-19T00:48:39;11.45;;;6.40;;
22644;SDS011;11489;50.834;6.752;2023-10-19T00:51:05;9.25;;;6.50;;
22644;SDS011;11489;50.834;6.752;2023-10-19T00:53:49;9.82;;;7.00;;
22644;SDS011;11489;50.834;6.752;2023-10-19T00:56:15;9.38;;;6.72;;
22644;SDS011;11489;50.834;6.752;2023-10-19T00:58:44;9.43;;;6.95;;
22644;SDS011;11489;50.834;6.752;2023-10-19T01:01:19;8.55;;;6.80;;
22644;SDS011;11489;50.834;6.752;2023-10-19T01:03:49;10.25;;;6.65;;
22644;SDS011;11489;50.834;6.752;2023-10-19T01:06:21;10.10;;;6.85;;
22644;SDS011;11489;50.834;6.752;2023-10-19T01:08:50;9.55;;;6.93;;
22644;SDS011;11489;50.834;6.752;2023-10-19T01:11:17;9.70;;;6.72;;
22644;SDS011;11489;50.834;6.752;2023-10-19T01:13:46;9.57;;;7.03;;
22644;SDS011;11489;50.834;6.752;2023-10-19T01:16:16;9.82;;;7.47;;
22644;SDS011;11489;50.834;6.752;2023-10-19T01:18:49;9.73;;;7.43;;
22644;SDS011;11489;50.834;6.752;2023-10-19T01:21:21;9.57;;;6.72;;
22644;SDS011;11489;50.834;6.752;2023-10-19T01:23:50;10.27;;;7.25;;
22644;SDS011;11489;50.834;6.752;2023-10-19T01:26:16;8.75;;;6.72;;
22644;SDS011;11489;50.834;6.752;2023-10-19T01:28:51;8.95;;;6.70;;
22644;SDS011;11489;50.834;6.752;2023-10-19T01:31:28;9.95;;;6.95;;
22644;SDS011;11489;50.834;6.752;2023-10-19T01:33:54;10.32;;;7.28;;
22644;SDS011;11489;50.834;6.752;2023-10-19T01:36:24;10.10;;;6.78;;
22644;SDS011;11489;50.834;6.752;2023-10-19T01:38:54;8.93;;;7.05;;
22644;SDS011;11489;50.834;6.752;2023-10-19T01:41:24;9.70;;;7.10;;
22644;SDS011;11489;50.834;6.752;2023-10-19T01:43:51;9.40;;;6.40;;
22644;SDS011;11489;50.834;6.752;2023-10-19T01:46:29;8.02;;;6.10;;
22644;SDS011;11489;50.834;6.752;2023-10-19T01:49:02;8.70;;;6.35;;
22644;SDS011;11489;50.834;6.752;2023-10-19T01:51:33;8.65;;;6.70;;
22644;SDS011;11489;50.834;6.752;2023-10-19T01:54:03;9.63;;;6.75;;
22644;SDS011;11489;50.834;6.752;2023-10-19T01:56:31;9.27;;;6.47;;
22644;SDS011;11489;50.834;6.752;2023-10-19T01:59:00;9.10;;;6.35;;
22644;SDS011;11489;50.834;6.752;2023-10-19T02:01:28;11.55;;;6.65;;
22644;SDS011;11489;50.834;6.752;2023-10-19T02:03:55;8.40;;;5.85;;
22644;SDS011;11489;50.834;6.752;2023-10-19T02:06:24;9.27;;;6.50;;
22644;SDS011;11489;50.834;6.752;2023-10-19T02:09:00;9.55;;;6.30;;
22644;SDS011;11489;50.834;6.752;2023-10-19T02:11:34;8.57;;;6.38;;
22644;SDS011;11489;50.834;6.752;2023-10-19T02:14:03;10.23;;;6.85;;
22644;SDS011;11489;50.834;6.752;2023-10-19T02:16:39;11.07;;;6.78;;
22644;SDS011;11489;50.834;6.752;2023-10-19T02:19:08;8.55;;;6.40;;
22644;SDS011;11489;50.834;6.752;2023-10-19T02:21:35;10.45;;;6.43;;
22644;SDS011;11489;50.834;6.752;2023-10-19T02:24:10;9.10;;;6.70;;
22644;SDS011;11489;50.834;6.752;2023-10-19T02:26:42;10.00;;;6.70;;
22644;SDS011;11489;50.834;6.752;2023-10-19T02:29:09;9.50;;;7.00;;
22644;SDS011;11489;50.834;6.752;2023-10-19T02:31:35;9.88;;;6.47;;
22644;SDS011;11489;50.834;6.752;2023-10-19T02:34:05;9.02;;;6.80;;
22644;SDS011;11489;50.834;6.752;2023-10-19T02:36:32;9.27;;;6.70;;
22644;SDS011;11489;50.834;6.752;2023-10-19T02:39:02;10.13;;;6.82;;
22644;SDS011;11489;50.834;6.752;2023-10-19T02:41:33;8.50;;;6.63;;
22644;SDS011;11489;50.834;6.752;2023-10-19T02:44:10;9.32;;;7.03;;
22644;SDS011;11489;50.834;6.752;2023-10-19T02:46:46;9.73;;;6.93;;
22644;SDS011;11489;50.834;6.752;2023-10-19T02:49:14;11.95;;;7.15;;
22644;SDS011;11489;50.834;6.752;2023-10-19T02:51:43;9.75;;;6.95;;
22644;SDS011;11489;50.834;6.752;2023-10-19T02:54:10;9.63;;;6.90;;
22644;SDS011;11489;50.834;6.752;2023-10-19T02:56:53;9.30;;;7.10;;
22644;SDS011;11489;50.834;6.752;2023-10-19T02:59:22;11.30;;;7.50;;
22644;SDS011;11489;50.834;6.752;2023-10-19T03:01:52;11.32;;;7.70;;
22644;SDS011;11489;50.834;6.752;2023-10-19T03:04:37;13.10;;;7.78;;
22644;SDS011;11489;50.834;6.752;2023-10-19T03:07:03;10.88;;;7.18;;
22644;SDS011;11489;50.834;6.752;2023-10-19T03:09:30;12.70;;;7.85;;
22644;SDS011;11489;50.834;6.752;2023-10-19T03:11:57;11.20;;;7.65;;
22644;SDS011;11489;50.834;6.752;2023-10-19T03:14:30;13.05;;;8.00;;
22644;SDS011;11489;50.834;6.752;2023-10-19T03:16:59;10.45;;;7.50;;
22644;SDS011;11489;50.834;6.752;2023-10-19T03:19:25;10.25;;;7.32;;
22644;SDS011;11489;50.834;6.752;2023-10-19T03:21:52;10.48;;;7.65;;
22644;SDS011;11489;50.834;6.752;2023-10-19T03:24:20;11.57;;;7.78;;
22644;SDS011;11489;50.834;6.752;2023-10-19T03:27:00;10.02;;;7.32;;
22644;SDS011;11489;50.834;6.752;2023-10-19T03:29:27;10.90;;;7.40;;
22644;SDS011;11489;50.834;6.752;2023-10-19T03:32:03;11.43;;;7.28;;
22644;SDS011;11489;50.834;6.752;2023-10-19T03:34:31;9.13;;;6.90;;
22644;SDS011;11489;50.834;6.752;2023-10-19T03:36:57;10.10;;;6.82;;
22644;SDS011;11489;50.834;6.752;2023-10-19T03:39:30;9.85;;;6.90;;
22644;SDS011;11489;50.834;6.752;2023-10-19T03:41:59;9.77;;;7.07;;
22644;SDS011;11489;50.834;6.752;2023-10-19T03:44:24;9.10;;;6.60;;
22644;SDS011;11489;50.834;6.752;2023-10-19T03:46:50;9.85;;;7.32;;
22644;SDS011;11489;50.834;6.752;2023-10-19T03:49:22;10.10;;;7.20;;
22644;SDS011;11489;50.834;6.752;2023-10-19T03:51:55;9.95;;;6.85;;
22644;SDS011;11489;50.834;6.752;2023-10-19T03:54:27;11.73;;;6.93;;
22644;SDS011;11489;50.834;6.752;2023-10-19T03:56:54;11.07;;;7.35;;
22644;SDS011;11489;50.834;6.752;2023-10-19T03:59:22;9.52;;;6.50;;
22644;SDS011;11489;50.834;6.752;2023-10-19T04:01:49;9.82;;;6.82;;
22644;SDS011;11489;50.834;6.752;2023-10-19T04:04:15;9.35;;;7.07;;
22644;SDS011;11489;50.834;6.752;2023-10-19T04:06:41;10.65;;;7.18;;
22644;SDS011;11489;50.834;6.752;2023-10-19T04:09:14;11.95;;;6.68;;
22644;SDS011;11489;50.834;6.752;2023-10-19T04:11:42;10.05;;;6.78;;
22644;SDS011;11489;50.834;6.752;2023-10-19T04:14:14;9.35;;;6.68;;
22644;SDS011;11489;50.834;6.752;2023-10-19T04:16:41;8.18;;;6.22;;
22644;SDS011;11489;50.834;6.752;2023-10-19T04:19:10;8.15;;;6.35;;
22644;SDS011;11489;50.834;6.752;2023-10-19T04:21:37;9.23;;;6.05;;
22644;SDS011;11489;50.834;6.752;2023-10-19T04:24:09;8.48;;;5.85;;
22644;SDS011;11489;50.834;6.752;2023-10-19T04:26:36;8.95;;;5.88;;
22644;SDS011;11489;50.834;6.752;2023-10-19T04:29:05;8.00;;;5.75;;
22644;SDS011;11489;50.834;6.752;2023-10-19T04:31:42;8.35;;;5.40;;
22644;SDS011;11489;50.834;6.752;2023-10-19T04:34:18;7.05;;;5.28;;
22644;SDS011;11489;50.834;6.752;2023-10-19T04:36:49;8.32;;;5.30;;
22644;SDS011;11489;50.834;6.752;2023-10-19T04:39:15;9.25;;;5.13;;
22644;SDS011;11489;50.834;6.752;2023-10-19T04:41:44;7.38;;;5.00;;
22644;SDS011;11489;50.834;6.752;2023-10-19T04:44:10;5.65;;;4.43;;
22644;SDS011;11489;50.834;6.752;2023-10-19T04:46:36;8.25;;;4.85;;
22644;SDS011;11489;50.834;6.752;2023-10-19T04:49:02;9.13;;;4.70;;
22644;SDS011;11489;50.834;6.752;2023-10-19T04:51:29;5.68;;;4.22;;
22644;SDS011;11489;50.834;6.752;2023-10-19T04:53:55;6.28;;;4.43;;
22644;SDS011;11489;50.834;6.752;2023-10-19T04:56:21;7.93;;;4.00;;
22644;SDS011;11489;50.834;6.752;2023-10-19T04:58:47;5.43;;;3.80;;
22644;SDS011;11489;50.834;6.752;2023-10-19T05:01:13;5.70;;;3.80;;
22644;SDS011;11489;50.834;6.752;2023-10-19T05:03:40;4.50;;;3.28;;
22644;SDS011;11489;50.834;6.752;2023-10-19T05:06:06;4.43;;;3.40;;
22644;SDS011;11489;50.834;6.752;2023-10-19T05:08:32;5.57;;;3.30;;
22644;SDS011;11489;50.834;6.752;2023-10-19T05:10:58;5.18;;;3.35;;
22644;SDS011;11489;50.834;6.752;2023-10-19T05:13:26;4.30;;;3.42;;
22644;SDS011;11489;50.834;6.752;2023-10-19T05:15:55;6.47;;;3.70;;
22644;SDS011;11489;50.834;6.752;2023-10-19T05:18:23;10.57;;;3.50;;
22644;SDS011;11489;50.834;6.752;2023-10-19T05:20:54;5.72;;;3.75;;
22644;SDS011;11489;50.834;6.752;2023-10-19T05:23:25;6.55;;;3.92;;
22644;SDS011;11489;50.834;6.752;2023-10-19T05:25:53;5.05;;;3.53;;
22644;SDS011;11489;50.834;6.752;2023-10-19T05:28:24;4.93;;;3.42;;
22644;SDS011;11489;50.834;6.752;2023-10-19T05:30:50;5.55;;;3.97;;
22644;SDS011;11489;50.834;6.752;2023-10-19T05:33:16;6.38;;;3.55;;
22644;SDS011;11489;50.834;6.752;2023-10-19T05:35:49;7.60;;;3.60;;
22644;SDS011;11489;50.834;6.752;2023-10-19T05:38:15;5.18;;;3.67;;
22644;SDS011;11489;50.834;6.752;2023-10-19T05:40:42;5.55;;;3.90;;
22644;SDS011;11489;50.834;6.752;2023-10-19T05:43:08;5.38;;;3.75;;
22644;SDS011;11489;50.834;6.752;2023-10-19T05:45:34;7.32;;;3.95;;
22644;SDS011;11489;50.834;6.752;2023-10-19T05:48:01;6.68;;;3.92;;
22644;SDS011;11489;50.834;6.752;2023-10-19T05:50:29;6.97;;;3.88;;
22644;SDS011;11489;50.834;6.752;2023-10-19T05:52:54;9.07;;;4.68;;
22644;SDS011;11489;50.834;6.752;2023-10-19T05:55:20;10.05;;;4.20;;
22644;SDS011;11489;50.834;6.752;2023-10-19T05:57:47;6.00;;;4.43;;
22644;SDS011;11489;50.834;6.752;2023-10-19T06:00:13;7.28;;;4.60;;
22644;SDS011;11489;50.834;6.752;2023-10-19T06:02:39;7.00;;;4.95;;
22644;SDS011;11489;50.834;6.752;2023-10-19T06:05:08;6.10;;;4.90;;
22644;SDS011;11489;50.834;6.752;2023-10-19T06:07:34;6.88;;;4.95;;
22644;SDS011;11489;50.834;6.752;2023-10-19T06:10:00;7.95;;;4.75;;
22644;SDS011;11489;50.834;6.752;2023-10-19T06:12:30;8.00;;;5.05;;
22644;SDS011;11489;50.834;6.752;2023-10-19T06:14:56;7.20;;;4.43;;
22644;SDS011;11489;50.834;6.752;2023-10-19T06:17:22;7.47;;;4.97;;
22644;SDS011;11489;50.834;6.752;2023-10-19T06:19:48;5.80;;;4.72;;
22644;SDS011;11489;50.834;6.752;2023-10-19T06:22:14;8.50;;;5.43;;
22644;SDS011;11489;50.834;6.752;2023-10-19T06:24:41;7.72;;;5.18;;
22644;SDS011;11489;50.834;6.752;2023-10-19T06:27:09;6.63;;;5.10;;
22644;SDS011;11489;50.834;6.752;2023-10-19T06:29:35;9.75;;;5.80;;
22644;SDS011;11489;50.834;6.752;2023-10-19T06:32:01;5.95;;;4.63;;
22644;SDS011;11489;50.834;6.752;2023-10-19T06:34:27;7.53;;;4.93;;
22644;SDS011;11489;50.834;6.752;2023-10-19T06:36:53;7.65;;;4.95;;
22644;SDS011;11489;50.834;6.752;2023-10-19T06:39:19;7.63;;;5.53;;
22644;SDS011;11489;50.834;6.752;2023-10-19T06:41:48;7.80;;;5.63;;
22644;SDS011;11489;50.834;6.752;2023-10-19T06:44:14;8.20;;;5.75;;
22644;SDS011;11489;50.834;6.752;2023-10-19T06:46:42;9.50;;;5.35;;
22644;SDS011;11489;50.834;6.752;2023-10-19T06:49:08;7.13;;;5.32;;
22644;SDS011;11489;50.834;6.752;2023-10-19T06:51:34;8.15;;;5.30;;
22644;SDS011;11489;50.834;6.752;2023-10-19T06:54:01;7.20;;;5.13;;
22644;SDS011;11489;50.834;6.752;2023-10-19T06:56:28;10.40;;;5.90;;
22644;SDS011;11489;50.834;6.752;2023-10-19T06:58:55;9.07;;;5.65;;
22644;SDS011;11489;50.834;6.752;2023-10-19T07:01:21;9.68;;;5.50;;
22644;SDS011;11489;50.834;6.752;2023-10-19T07:03:51;9.30;;;5.20;;
22644;SDS011;11489;50.834;6.752;2023-10-19T07:06:18;8.43;;;5.53;;
22644;SDS011;11489;50.834;6.752;2023-10-19T07:08:44;10.35;;;5.95;;
22644;SDS011;11489;50.834;6.752;2023-10-19T07:11:11;12.98;;;6.40;;
22644;SDS011;11489;50.834;6.752;2023-10-19T07:13:37;9.48;;;6.50;;
22644;SDS011;11489;50.834;6.752;2023-10-19T07:16:05;8.77;;;6.15;;
22644;SDS011;11489;50.834;6.752;2023-10-19T07:18:31;13.77;;;6.95;;
22644;SDS011;11489;50.834;6.752;2023-10-19T07:20:56;12.05;;;6.47;;
22644;SDS011;11489;50.834;6.752;2023-10-19T07:23:28;10.25;;;5.88;;
22644;SDS011;11489;50.834;6.752;2023-10-19T07:25:54;11.43;;;6.57;;
22644;SDS011;11489;50.834;6.752;2023-10-19T07:28:21;9.85;;;6.47;;
22644;SDS011;11489;50.834;6.752;2023-10-19T07:30:47;9.55;;;6.15;;
22644;SDS011;11489;50.834;6.752;2023-10-19T07:33:14;9.88;;;6.50;;
22644;SDS011;11489;50.834;6.752;2023-10-19T07:35:43;10.23;;;6.40;;
22644;SDS011;11489;50.834;6.752;2023-10-19T07:38:12;9.80;;;6.35;;
22644;SDS011;11489;50.834;6.752;2023-10-19T07:40:38;9.23;;;6.65;;
22644;SDS011;11489;50.834;6.752;2023-10-19T07:43:04;12.90;;;7.88;;
22644;SDS011;11489;50.834;6.752;2023-10-19T07:45:31;10.88;;;8.35;;
22644;SDS011;11489;50.834;6.752;2023-10-19T07:47:57;11.05;;;7.25;;
22644;SDS011;11489;50.834;6.752;2023-10-19T07:50:23;10.90;;;7.07;;
22644;SDS011;11489;50.834;6.752;2023-10-19T07:52:52;9.48;;;6.03;;
22644;SDS011;11489;50.834;6.752;2023-10-19T07:55:19;8.88;;;6.38;;
22644;SDS011;11489;50.834;6.752;2023-10-19T07:57:51;10.57;;;5.97;;
22644;SDS011;11489;50.834;6.752;2023-10-19T08:00:18;6.75;;;4.85;;
22644;SDS011;11489;50.834;6.752;2023-10-19T08:02:44;10.45;;;6.07;;
22644;SDS011;11489;50.834;6.752;2023-10-19T08:05:11;7.97;;;5.10;;
22644;SDS011;11489;50.834;6.752;2023-10-19T08:07:40;7.55;;;4.57;;
22644;SDS011;11489;50.834;6.752;2023-10-19T08:10:10;7.45;;;4.80;;
22644;SDS011;11489;50.834;6.752;2023-10-19T08:12:37;7.70;;;4.55;;
22644;SDS011;11489;50.834;6.752;2023-10-19T08:15:07;8.50;;;4.28;;
22644;SDS011;11489;50.834;6.752;2023-10-19T08:17:37;8.45;;;4.53;;
22644;SDS011;11489;50.834;6.752;2023-10-19T08:20:06;8.02;;;4.05;;
22644;SDS011;11489;50.834;6.752;2023-10-19T08:22:44;4.90;;;3.67;;
22644;SDS011;11489;50.834;6.752;2023-10-19T08:25:13;8.18;;;3.25;;
22644;SDS011;11489;50.834;6.752;2023-10-19T08:27:40;4.57;;;3.10;;
22644;SDS011;11489;50.834;6.752;2023-10-19T08:30:10;6.32;;;3.05;;
22644;SDS011;11489;50.834;6.752;2023-10-19T08:32:39;5.43;;;2.55;;
22644;SDS011;11489;50.834;6.752;2023-10-19T08:35:07;4.38;;;2.50;;
22644;SDS011;11489;50.834;6.752;2023-10-19T08:37:37;7.30;;;2.50;;
22644;SDS011;11489;50.834;6.752;2023-10-19T08:40:06;5.18;;;2.10;;
22644;SDS011;11489;50.834;6.752;2023-10-19T08:42:39;5.75;;;2.60;;
22644;SDS011;11489;50.834;6.752;2023-10-19T08:45:06;8.60;;;3.22;;
22644;SDS011;11489;50.834;6.752;2023-10-19T08:47:34;5.90;;;2.45;;
22644;SDS011;11489;50.834;6.752;2023-10-19T08:50:02;7.32;;;2.15;;
22644;SDS011;11489;50.834;6.752;2023-10-19T08:52:30;4.15;;;1.83;;
22644;SDS011;11489;50.834;6.752;2023-10-19T08:54:57;5.60;;;2.03;;
22644;SDS011;11489;50.834;6.752;2023-10-19T08:57:23;4.70;;;1.45;;
22644;SDS011;11489;50.834;6.752;2023-10-19T08:59:49;5.18;;;1.50;;
22644;SDS011;11489;50.834;6.752;2023-10-19T09:02:14;4.38;;;1.58;;
22644;SDS011;11489;50.834;6.752;2023-10-19T09:04:42;4.93;;;1.35;;
22644;SDS011;11489;50.834;6.752;2023-10-19T09:07:11;5.68;;;1.75;;
22644;SDS011;11489;50.834;6.752;2023-10-19T09:09:37;5.25;;;1.67;;
22644;SDS011;11489;50.834;6.752;2023-10-19T09:12:06;4.38;;;1.50;;
22644;SDS011;11489;50.834;6.752;2023-10-19T09:14:34;7.35;;;1.58;;
22644;SDS011;11489;50.834;6.752;2023-10-19T09:17:01;3.78;;;1.50;;
22644;SDS011;11489;50.834;6.752;2023-10-19T09:22:01;3.53;;;1.75;;
22644;SDS011;11489;50.834;6.752;2023-10-19T09:24:33;4.32;;;1.70;;
22644;SDS011;11489;50.834;6.752;2023-10-19T09:27:01;5.70;;;1.70;;
22644;SDS011;11489;50.834;6.752;2023-10-19T09:29:28;5.00;;;1.65;;
22644;SDS011;11489;50.834;6.752;2023-10-19T09:31:54;6.75;;;1.70;;
22644;SDS011;11489;50.834;6.752;2023-10-19T09:34:23;4.60;;;1.60;;
22644;SDS011;11489;50.834;6.752;2023-10-19T09:36:57;3.65;;;1.50;;
22644;SDS011;11489;50.834;6.752;2023-10-19T09:39:26;5.75;;;1.80;;
22644;SDS011;11489;50.834;6.752;2023-10-19T09:42:00;6.60;;;1.75;;
22644;SDS011;11489;50.834;6.752;2023-10-19T09:44:42;3.50;;;1.58;;
22644;SDS011;11489;50.834;6.752;2023-10-19T09:47:26;4.28;;;1.40;;
22644;SDS011;11489;50.834;6.752;2023-10-19T09:49:56;5.18;;;1.48;;
22644;SDS011;11489;50.834;6.752;2023-10-19T09:52:22;6.25;;;1.70;;
22644;SDS011;11489;50.834;6.752;2023-10-19T09:58:06;6.40;;;1.70;;
22644;SDS011;11489;50.834;6.752;2023-10-19T10:00:34;7.15;;;1.50;;
22644;SDS011;11489;50.834;6.752;2023-10-19T10:03:00;4.78;;;1.75;;
22644;SDS011;11489;50.834;6.752;2023-10-19T10:10:46;2.97;;;1.42;;
22644;SDS011;11489;50.834;6.752;2023-10-19T10:15:55;7.15;;;1.30;;
22644;SDS011;11489;50.834;6.752;2023-10-19T10:18:26;3.53;;;1.25;;
22644;SDS011;11489;50.834;6.752;2023-10-19T10:21:11;4.85;;;1.17;;
22644;SDS011;11489;50.834;6.752;2023-10-19T10:23:51;4.43;;;1.30;;
22644;SDS011;11489;50.834;6.752;2023-10-19T10:26:24;4.50;;;1.00;;
22644;SDS011;11489;50.834;6.752;2023-10-19T10:31:43;5.25;;;1.15;;
22644;SDS011;11489;50.834;6.752;2023-10-19T10:34:11;5.40;;;1.23;;
22644;SDS011;11489;50.834;6.752;2023-10-19T10:37:01;4.82;;;1.20;;
22644;SDS011;11489;50.834;6.752;2023-10-19T10:39:27;5.78;;;1.10;;
22644;SDS011;11489;50.834;6.752;2023-10-19T10:41:59;3.95;;;1.10;;
22644;SDS011;11489;50.834;6.752;2023-10-19T10:44:45;3.50;;;0.95;;
22644;SDS011;11489;50.834;6.752;2023-10-19T10:47:15;6.75;;;1.13;;
22644;SDS011;11489;50.834;6.752;2023-10-19T10:49:49;4.18;;;1.20;;
22644;SDS011;11489;50.834;6.752;2023-10-19T10:52:33;3.58;;;1.00;;
22644;SDS011;11489;50.834;6.752;2023-10-19T10:55:09;4.32;;;1.23;;
22644;SDS011;11489;50.834;6.752;2023-10-19T10:57:36;3.30;;;1.00;;
22644;SDS011;11489;50.834;6.752;2023-10-19T11:02:36;4.28;;;1.40;;
22644;SDS011;11489;50.834;6.752;2023-10-19T11:05:08;4.53;;;1.05;;
22644;SDS011;11489;50.834;6.752;2023-10-19T11:07:38;5.78;;;1.35;;
22644;SDS011;11489;50.834;6.752;2023-10-19T11:10:04;3.97;;;1.23;;
22644;SDS011;11489;50.834;6.752;2023-10-19T11:12:31;4.50;;;1.15;;
22644;SDS011;11489;50.834;6.752;2023-10-19T11:14:57;5.72;;;1.40;;
22644;SDS011;11489;50.834;6.752;2023-10-19T11:17:24;5.38;;;1.27;;
22644;SDS011;11489;50.834;6.752;2023-10-19T11:19:56;4.53;;;1.00;;
22644;SDS011;11489;50.834;6.752;2023-10-19T11:22:26;4.93;;;1.20;;
22644;SDS011;11489;50.834;6.752;2023-10-19T11:24:52;5.63;;;1.20;;
22644;SDS011;11489;50.834;6.752;2023-10-19T11:27:25;4.25;;;1.20;;
22644;SDS011;11489;50.834;6.752;2023-10-19T11:29:55;6.63;;;1.30;;
22644;SDS011;11489;50.834;6.752;2023-10-19T11:32:22;4.05;;;1.20;;
22644;SDS011;11489;50.834;6.752;2023-10-19T11:34:50;5.90;;;1.20;;
22644;SDS011;11489;50.834;6.752;2023-10-19T11:37:19;3.35;;;1.27;;
22644;SDS011;11489;50.834;6.752;2023-10-19T11:39:45;5.68;;;1.15;;
22644;SDS011;11489;50.834;6.752;2023-10-19T11:42:11;4.88;;;1.33;;
22644;SDS011;11489;50.834;6.752;2023-10-19T11:44:37;3.25;;;1.10;;
22644;SDS011;11489;50.834;6.752;2023-10-19T11:47:04;4.45;;;1.10;;
22644;SDS011;11489;50.834;6.752;2023-10-19T11:49:30;5.03;;;1.67;;
22644;SDS011;11489;50.834;6.752;2023-10-19T11:51:55;5.47;;;1.38;;
22644;SDS011;11489;50.834;6.752;2023-10-19T11:54:22;3.00;;;1.25;;
22644;SDS011;11489;50.834;6.752;2023-10-19T11:56:48;4.68;;;1.35;;
22644;SDS011;11489;50.834;6.752;2023-10-19T11:59:14;4.30;;;1.42;;
22644;SDS011;11489;50.834;6.752;2023-10-19T12:01:40;5.38;;;1.60;;
22644;SDS011;11489;50.834;6.752;2023-10-19T12:04:07;3.47;;;1.13;;
22644;SDS011;11489;50.834;6.752;2023-10-19T12:06:34;4.80;;;1.10;;
22644;SDS011;11489;50.834;6.752;2023-10-19T12:09:00;3.72;;;1.10;;
22644;SDS011;11489;50.834;6.752;2023-10-19T12:11:39;5.18;;;1.20;;
22644;SDS011;11489;50.834;6.752;2023-10-19T12:14:06;3.45;;;1.02;;
22644;SDS011;11489;50.834;6.752;2023-10-19T12:16:36;3.53;;;1.20;;
22644;SDS011;11489;50.834;6.752;2023-10-19T12:19:02;4.90;;;1.30;;
22644;SDS011;11489;50.834;6.752;2023-10-19T12:21:28;5.10;;;1.17;;
22644;SDS011;11489;50.834;6.752;2023-10-19T12:23:55;4.57;;;1.45;;
22644;SDS011;11489;50.834;6.752;2023-10-19T12:26:22;4.10;;;1.15;;
22644;SDS011;11489;50.834;6.752;2023-10-19T12:28:48;5.25;;;1.40;;
22644;SDS011;11489;50.834;6.752;2023-10-19T12:31:14;3.47;;;1.40;;
22644;SDS011;11489;50.834;6.752;2023-10-19T12:33:43;4.32;;;1.17;;
22644;SDS011;11489;50.834;6.752;2023-10-19T12:36:10;3.65;;;1.50;;
22644;SDS011;11489;50.834;6.752;2023-10-19T12:38:54;4.90;;;1.40;;
22644;SDS011;11489;50.834;6.752;2023-10-19T12:41:20;2.40;;;0.90;;
22644;SDS011;11489;50.834;6.752;2023-10-19T12:43:46;6.38;;;1.20;;
22644;SDS011;11489;50.834;6.752;2023-10-19T12:46:15;5.25;;;1.25;;
22644;SDS011;11489;50.834;6.752;2023-10-19T12:48:42;3.75;;;1.23;;
22644;SDS011;11489;50.834;6.752;2023-10-19T12:51:13;3.65;;;1.30;;
22644;SDS011;11489;50.834;6.752;2023-10-19T12:53:40;2.65;;;1.30;;
22644;SDS011;11489;50.834;6.752;2023-10-19T12:56:06;4.10;;;1.35;;
22644;SDS011;11489;50.834;6.752;2023-10-19T12:58:32;4.32;;;1.42;;
22644;SDS011;11489;50.834;6.752;2023-10-19T13:00:58;4.25;;;1.55;;
22644;SDS011;11489;50.834;6.752;2023-10-19T13:03:24;7.10;;;1.42;;
22644;SDS011;11489;50.834;6.752;2023-10-19T13:05:56;5.72;;;1.45;;
22644;SDS011;11489;50.834;6.752;2023-10-19T13:08:23;2.97;;;1.40;;
22644;SDS011;11489;50.834;6.752;2023-10-19T13:10:52;3.10;;;1.42;;
22644;SDS011;11489;50.834;6.752;2023-10-19T13:13:19;6.45;;;1.63;;
22644;SDS011;11489;50.834;6.752;2023-10-19T13:15:49;5.25;;;1.88;;
22644;SDS011;11489;50.834;6.752;2023-10-19T13:18:15;3.13;;;1.77;;
22644;SDS011;11489;50.834;6.752;2023-10-19T13:20:50;5.65;;;1.80;;
22644;SDS011;11489;50.834;6.752;2023-10-19T13:23:18;5.53;;;1.70;;
22644;SDS011;11489;50.834;6.752;2023-10-19T13:25:50;5.47;;;1.63;;
22644;SDS011;11489;50.834;6.752;2023-10-19T13:28:22;2.75;;;1.50;;
22644;SDS011;11489;50.834;6.752;2023-10-19T13:30:49;4.65;;;1.77;;
22644;SDS011;11489;50.834;6.752;2023-10-19T13:33:18;5.18;;;1.73;;
22644;SDS011;11489;50.834;6.752;2023-10-19T13:35:46;2.85;;;1.73;;
22644;SDS011;11489;50.834;6.752;2023-10-19T13:38:16;6.05;;;1.85;;
22644;SDS011;11489;50.834;6.752;2023-10-19T13:40:42;4.20;;;1.83;;
22644;SDS011;11489;50.834;6.752;2023-10-19T13:43:09;4.63;;;1.90;;
22644;SDS011;11489;50.834;6.752;2023-10-19T13:45:39;5.13;;;2.10;;
22644;SDS011;11489;50.834;6.752;2023-10-19T13:48:06;6.82;;;1.58;;
22644;SDS011;11489;50.834;6.752;2023-10-19T13:50:33;5.38;;;1.83;;
22644;SDS011;11489;50.834;6.752;2023-10-19T13:53:00;3.33;;;1.52;;
22644;SDS011;11489;50.834;6.752;2023-10-19T13:55:27;5.45;;;1.58;;
22644;SDS011;11489;50.834;6.752;2023-10-19T13:57:53;6.57;;;1.85;;
22644;SDS011;11489;50.834;6.752;2023-10-19T14:00:21;4.63;;;1.88;;
22644;SDS011;11489;50.834;6.752;2023-10-19T14:03:01;4.72;;;1.90;;
22644;SDS011;11489;50.834;6.752;2023-10-19T14:05:27;3.53;;;1.75;;
22644;SDS011;11489;50.834;6.752;2023-10-19T14:07:54;3.88;;;1.70;;
22644;SDS011;11489;50.834;6.752;2023-10-19T14:10:20;4.10;;;1.98;;
22644;SDS011;11489;50.834;6.752;2023-10-19T14:12:47;3.90;;;1.60;;
22644;SDS011;11489;50.834;6.752;2023-10-19T14:15:20;4.40;;;1.67;;
22644;SDS011;11489;50.834;6.752;2023-10-19T14:17:47;3.35;;;1.55;;
22644;SDS011;11489;50.834;6.752;2023-10-19T14:20:14;2.97;;;1.50;;
22644;SDS011;11489;50.834;6.752;2023-10-19T14:22:50;3.15;;;1.40;;
22644;SDS011;11489;50.834;6.752;2023-10-19T14:25:16;5.07;;;1.90;;
22644;SDS011;11489;50.834;6.752;2023-10-19T14:27:45;6.80;;;1.70;;
22644;SDS011;11489;50.834;6.752;2023-10-19T14:30:22;3.17;;;1.70;;
22644;SDS011;11489;50.834;6.752;2023-10-19T14:32:49;5.63;;;2.00;;
22644;SDS011;11489;50.834;6.752;2023-10-19T14:35:16;4.32;;;1.85;;
22644;SDS011;11489;50.834;6.752;2023-10-19T14:37:44;5.50;;;2.22;;
22644;SDS011;11489;50.834;6.752;2023-10-19T14:40:18;5.95;;;2.63;;
22644;SDS011;11489;50.834;6.752;2023-10-19T14:42:46;4.05;;;2.03;;
22644;SDS011;11489;50.834;6.752;2023-10-19T14:45:16;4.80;;;2.20;;
22644;SDS011;11489;50.834;6.752;2023-10-19T14:47:46;5.97;;;2.33;;
22644;SDS011;11489;50.834;6.752;2023-10-19T14:50:13;5.68;;;1.95;;
22644;SDS011;11489;50.834;6.752;2023-10-19T14:52:43;4.40;;;2.00;;
22644;SDS011;11489;50.834;6.752;2023-10-19T14:55:11;5.57;;;2.28;;
22644;SDS011;11489;50.834;6.752;2023-10-19T14:57:37;5.20;;;2.17;;
22644;SDS011;11489;50.834;6.752;2023-10-19T15:00:07;4.65;;;2.42;;
22644;SDS011;11489;50.834;6.752;2023-10-19T15:02:41;5.68;;;2.50;;
22644;SDS011;11489;50.834;6.752;2023-10-19T15:05:10;7.85;;;3.00;;
22644;SDS011;11489;50.834;6.752;2023-10-19T15:07:41;5.55;;;2.38;;
22644;SDS011;11489;50.834;6.752;2023-10-19T15:10:09;6.22;;;2.58;;
22644;SDS011;11489;50.834;6.752;2023-10-19T15:12:37;5.60;;;2.53;;
22644;SDS011;11489;50.834;6.752;2023-10-19T15:15:05;4.20;;;2.53;;